Nearby METAR Reports

 

KMTN - Baltimore/Martin, Maryland, USA
Distance from station: SSE 8mi, 13km
Updated: Thu, 21-Aug-2014 3:57am EDT
Clear
Clear
 Wind from S
Wind: S 3 mph , 6 km/h
Temperature: 72°F , 22°C
Dew Point: 70°F , 21°C
Humidity: 94%
Barometer: 30.01 inHg , 1016.3 hPa
Clouds: Clear
Visibility: 10 miles , 16 km
2014/08/21 07:57 KMTN 210757Z AUTO 18003KT 10SM CLR 22/21 A3001 RMK AO2
KDMH - Baltimore/Dwntwn, Maryland, USA
Distance from station: SW 12mi, 19km
Updated: Thu, 21-Aug-2014 3:54am EDT

 
Temperature: 73°F , 23°C
Dew Point: 68°F , 20°C
Humidity: 83%
Barometer: 30.00 inHg , 1015.9 hPa
2014/08/21 07:54 KDMH 210754Z AUTO 23/20 A3000 RMK AO1 SLP159 T02280200
 
KBWI - Balto/Wash Intl, Maryland, USA
Distance from station: SSW 20mi, 33km
Updated: Thu, 21-Aug-2014 3:54am EDT
Partly cloudy
Partly cloudy
 Wind from calm
Wind: Calm
Temperature: 66°F , 19°C
Dew Point: 64°F , 18°C
Humidity: 94%
Barometer: 30.00 inHg , 1015.9 hPa
Clouds: Partly cloudy
Visibility: 10 miles , 16 km
Cloud details: Few Clouds 3000 ft
Partly cloudy 25000 ft
2014/08/21 07:54 KBWI 210754Z 00000KT 10SM FEW030 SCT250 19/18 A3000 RMK AO2 SLP156 T01940178
KDMW - Carroll Cnty, Maryland, USA
Distance from station: WNW 30mi, 48km
Updated: Thu, 21-Aug-2014 3:55am EDT
Clear
Clear
 Wind from calm
Wind: Calm
Temperature: 66°F , 19°C
Dew Point: 66°F , 19°C
Humidity: 100%
Barometer: 30.01 inHg , 1016.3 hPa
Clouds: Clear
Visibility: 10 miles , 16 km
2014/08/21 07:55 KDMW 210755Z AUTO 00000KT 10SM CLR 19/19 A3001 RMK AO2 LTG DSNT NW
 
KNAK - Annapolis/Naval, Maryland, USA
Distance from station: S 30mi, 48km
Updated: Thu, 21-Aug-2014 3:54am EDT
Few Clouds
Few Clouds
 Wind from S
Wind: S 5 mph , 7 km/h
Temperature: 72°F , 22°C
Dew Point: 70°F , 21°C
Humidity: 94%
Barometer: 29.99 inHg , 1015.6 hPa
Clouds: Few Clouds
Visibility: 10 miles , 16 km
Cloud details: Few Clouds 3100 ft
2014/08/21 07:54 KNAK 210754Z AUTO 18004KT 10SM FEW031 22/21 A2999 RMK AO2 SLP157 T02220206 $
KW29 - Stevensville, Maryland, USA
Distance from station: SSE 31mi, 50km
Updated: Thu, 21-Aug-2014 3:55am EDT

 Wind from SE
Wind: SE 3 mph , 6 km/h
Temperature: 72°F , 22°C
Dew Point: 68°F , 20°C
Humidity: 88%
Barometer: 30.00 inHg , 1015.9 hPa
Visibility: 10 miles , 16 km
2014/08/21 07:55 KW29 210755Z AUTO 13003KT 10SM 22/20 A3000 RMK AO1
 
KCGS - College Park, Maryland, USA
Distance from station: SW 38mi, 61km
Updated: Thu, 21-Aug-2014 3:55am EDT
Clear
Clear
 Wind from calm
Wind: Calm
Temperature: 66°F , 19°C
Dew Point: 66°F , 19°C
Humidity: 100%
Barometer: 30.00 inHg , 1015.9 hPa
Clouds: Clear
Visibility: 5 miles , 8 km
2014/08/21 07:55 KCGS 210755Z AUTO 00000KT 5SM CLR 19/19 A3000 RMK AO1
KGAI - Gaithersburg, Maryland, USA
Distance from station: WSW 40mi, 65km
Updated: Thu, 21-Aug-2014 3:55am EDT
Clear
Clear
 Wind from calm
Wind: Calm
Temperature: 64°F , 18°C
Dew Point: 63°F , 17°C
Humidity: 94%
Barometer: 30.04 inHg , 1017.3 hPa
Clouds: Clear
Visibility: 7 miles , 11 km
2014/08/21 07:55 KGAI 210755Z AUTO 00000KT 7SM CLR 18/17 A3004 RMK AO1
 
KTHV - York, Pennsylvania, USA
Distance from station: NNW 40mi, 65km
Updated: Thu, 21-Aug-2014 3:53am EDT
Mist, Mostly cloudy
Mist, Mostly cloudy
 Wind from calm
Wind: Calm
Temperature: 61°F , 16°C
Dew Point: 61°F , 16°C
Humidity: 100%
Barometer: 30.01 inHg , 1016.3 hPa
Summary: Mist
Clouds: Mostly cloudy
Visibility: 5 miles , 8 km
Cloud details: Few Clouds 7000 ft
Mostly cloudy 8500 ft
Mostly cloudy 10000 ft
2014/08/21 07:53 KTHV 210753Z AUTO 00000KT 5SM BR FEW070 BKN085 BKN100 16/16 A3001 RMK AO2 SLP162 T01610161
KFDK - Frederick, Maryland, USA
Distance from station: W 47mi, 75km
Updated: Thu, 21-Aug-2014 3:55am EDT
Fog, Overcast
Fog, Overcast
 Wind from calm
Wind: Calm
Barometer: 30.03 inHg , 1016.9 hPa
Summary: Fog
Clouds: Overcast
Visibility: 1/4 mile , 2 km
Cloud details: Overcast 400 ft
2014/08/21 07:55 KFDK 210755Z AUTO 00000KT 1/4SM FG OVC004 A3003 RMK AO2 LTG DSNT NW
 
KESN - Easton/Newnam, Maryland, USA
Distance from station: SSE 48mi, 78km
Updated: Thu, 21-Aug-2014 4:07am EDT
Partly cloudy
Partly cloudy
 Wind from calm
Wind: Calm
Temperature: 70°F , 21°C
Dew Point: 70°F , 21°C
Humidity: 100%
Barometer: 30.04 inHg , 1017.3 hPa
Clouds: Partly cloudy
Visibility: 10 miles , 16 km
Cloud details: Partly cloudy 3300 ft
2014/08/21 08:07 KESN 210807Z AUTO 00000KT 10SM SCT033 21/21 A3004 RMK AO2 T02060206
KDCA - Washington/Natl, Washington D.c., USA
Distance from station: SW 49mi, 79km
Updated: Thu, 21-Aug-2014 3:52am EDT
Partly cloudy
Partly cloudy
 Wind from calm
Wind: Calm
Temperature: 72°F , 22°C
Dew Point: 64°F , 18°C
Humidity: 78%
Barometer: 30.01 inHg , 1016.3 hPa
Clouds: Partly cloudy
Visibility: 10 miles , 16 km
Cloud details: Partly cloudy 10000 ft
2014/08/21 07:52 KDCA 210752Z 00000KT 10SM SCT100 22/18 A3001 RMK AO2 SLP161 T02220178
 
KLNS - Lancaster, Pennsylvania, USA
Distance from station: N 49mi, 79km
Updated: Thu, 21-Aug-2014 3:53am EDT
Clear
Clear
 Wind from calm
Wind: Calm
Temperature: 64°F , 18°C
Dew Point: 61°F , 16°C
Humidity: 88%
Barometer: 30.01 inHg , 1016.3 hPa
Clouds: Clear
Visibility: 10 miles , 16 km
2014/08/21 07:53 KLNS 210753Z AUTO 00000KT 10SM CLR 18/16 A3001 RMK AO2 SLP160 T01780161
KILG - Wilmington, Delaware, USA
Distance from station: ENE 50mi, 81km
Updated: Thu, 21-Aug-2014 3:51am EDT
Mostly cloudy
Mostly cloudy
 Wind from calm
Wind: Calm
Temperature: 70°F , 21°C
Dew Point: 64°F , 18°C
Humidity: 83%
Barometer: 30.02 inHg , 1016.6 hPa
Clouds: Mostly cloudy
Visibility: 10 miles , 16 km
Cloud details: Mostly cloudy 8000 ft
2014/08/21 07:51 KILG 210751Z 00000KT 10SM BKN080 21/18 A3002 RMK AO2 SLP164 T02110183